West Harpersfield, New York
Current Conditions -  °F | °C
As of 7:10 PM on Thursday 27 Nov 2014 (Local Time) from KNY0 Reporting Station
Overcast Overcast  
Wind Chill: 18°   Ceiling: 3800
Heat Index: 26°   Visibility: 10mi
Dew Point: 24°   Wind: 7mph
Humidity: 92%   Direction: 260°W
Pressure: 30"   Gusts: NA
Location:  42.455°N, 74.6929°W
Report Text: KNY0 280010Z AUTO 26006KT 10SM OVC038 M03/M05 A3000 RMK AO2 T10341046
Loading
Personal Weather Stations






























Interactive Weather Map New forecast layout! Learn more

10-Day Weather Forecast

Advertisements
Track Severe Weather on mobile